Time;durP1;ratioP1;P1;durP2;ratioP2;P2;SDS_P1;SDS_P2;PMS_P1;PMS_P2;Temp;Humidity;BMP_temperature;BMP_pressure;BME280_temperature;BME280_humidity;BME280_pressure;Samples;Min_cycle;Max_cycle;Signal;HPM_P1;HPM_P2
2023/03/17 00:01:15;;;;;;;6.57;4.00;;;5.40;99.90;;;;;;5049357;28;20179;-79
2023/03/17 00:03:42;;;;;;;5.13;3.60;;;5.50;99.90;;;;;;5064517;28;20594;-80
2023/03/17 00:06:17;;;;;;;4.37;3.73;;;5.50;99.90;;;;;;5055475;28;20201;-78
2023/03/17 00:08:45;;;;;;;5.97;3.77;;;5.50;99.90;;;;;;5072881;28;20173;-78
2023/03/17 00:11:15;;;;;;;4.70;3.07;;;5.50;99.90;;;;;;5054845;28;20174;-78
2023/03/17 00:13:42;;;;;;;4.40;3.57;;;5.50;99.90;;;;;;5054879;28;20561;-79
2023/03/17 00:16:27;;;;;;;5.07;3.83;;;5.50;99.90;;;;;;5054837;28;20193;-78
2023/03/17 00:18:54;;;;;;;4.73;3.37;;;5.50;99.90;;;;;;5055053;28;20165;-78
2023/03/17 00:21:26;;;;;;;4.57;3.50;;;5.60;99.90;;;;;;5072635;28;20172;-78
2023/03/17 00:23:52;;;;;;;4.73;3.40;;;5.50;99.90;;;;;;5072632;28;20209;-78
2023/03/17 00:26:19;;;;;;;5.27;3.40;;;5.40;99.90;;;;;;5054664;28;20714;-79
2023/03/17 00:28:44;;;;;;;4.70;3.33;;;5.40;99.90;;;;;;5072715;28;20249;-79
2023/03/17 00:31:19;;;;;;;4.10;3.33;;;5.30;99.90;;;;;;5054636;28;20276;-78
2023/03/17 00:33:46;;;;;;;4.73;3.27;;;5.30;99.90;;;;;;5072652;28;20201;-78
2023/03/17 00:36:18;;;;;;;4.37;3.70;;;5.30;99.90;;;;;;5072380;28;20173;-78
2023/03/17 00:38:44;;;;;;;5.13;3.90;;;5.30;99.90;;;;;;5072246;28;20604;-80
2023/03/17 00:41:11;;;;;;;5.70;3.83;;;5.40;99.90;;;;;;5072435;28;20170;-79
2023/03/17 00:43:37;;;;;;;4.70;3.73;;;5.50;99.90;;;;;;5072344;28;20185;-78
2023/03/17 00:46:13;;;;;;;4.77;3.60;;;5.50;99.90;;;;;;5054448;28;20171;-80
2023/03/17 00:48:40;;;;;;;4.07;3.47;;;5.40;99.90;;;;;;5054395;28;20174;-79
2023/03/17 00:51:06;;;;;;;4.93;3.87;;;5.40;99.90;;;;;;5054088;28;20196;-78
2023/03/17 00:53:33;;;;;;;5.63;3.43;;;5.40;99.90;;;;;;5072290;28;20678;-78
2023/03/17 00:55:58;;;;;;;4.57;3.50;;;5.40;99.90;;;;;;5072096;28;20194;-78
2023/03/17 00:58:27;;;;;;;5.03;3.67;;;5.30;99.90;;;;;;5071972;28;20749;-78
2023/03/17 01:00:54;;;;;;;3.87;3.23;;;5.40;99.90;;;;;;5073716;28;20168;-79
2023/03/17 01:03:20;;;;;;;4.40;3.40;;;5.50;99.90;;;;;;5065645;28;20191;-79
2023/03/17 01:05:47;;;;;;;4.97;3.40;;;5.60;99.90;;;;;;5054167;28;20671;-79
2023/03/17 01:08:12;;;;;;;4.53;3.30;;;5.60;99.90;;;;;;5072399;28;20735;-78
2023/03/17 01:10:38;;;;;;;4.97;3.40;;;5.50;99.90;;;;;;5053800;28;20276;-78
2023/03/17 01:13:05;;;;;;;5.47;3.40;;;5.50;99.90;;;;;;5071994;28;20215;-78
2023/03/17 01:15:33;;;;;;;3.57;3.03;;;5.50;99.90;;;;;;5072026;28;20173;-79
2023/03/17 01:18:01;;;;;;;3.67;3.13;;;5.50;99.90;;;;;;5053988;28;20208;-78
2023/03/17 01:20:30;;;;;;;5.57;3.33;;;5.50;99.90;;;;;;5071616;28;20193;-78
2023/03/17 01:22:56;;;;;;;4.37;3.50;;;5.50;99.90;;;;;;5053926;28;20214;-78
2023/03/17 01:25:22;;;;;;;3.90;3.07;;;5.40;99.90;;;;;;5054003;28;20170;-78
2023/03/17 01:27:48;;;;;;;4.67;3.37;;;5.40;99.90;;;;;;5053913;28;20173;-79
2023/03/17 01:30:22;;;;;;;5.03;3.13;;;5.40;99.90;;;;;;5053911;28;20228;-79
2023/03/17 01:32:48;;;;;;;4.90;3.40;;;5.40;99.90;;;;;;5053918;28;20188;-79
2023/03/17 01:35:15;;;;;;;5.67;3.23;;;5.40;99.90;;;;;;5054133;28;20640;-78
2023/03/17 01:37:41;;;;;;;4.60;3.17;;;5.40;99.90;;;;;;5054113;28;20291;-79
2023/03/17 01:40:11;;;;;;;4.77;3.27;;;5.30;99.90;;;;;;5071808;28;20162;-80
2023/03/17 01:42:38;;;;;;;4.17;3.10;;;5.20;99.90;;;;;;5053816;28;20190;-79
2023/03/17 01:45:07;;;;;;;6.13;3.50;;;5.10;99.90;;;;;;5053900;28;20175;-77
2023/03/17 01:47:33;;;;;;;5.13;3.27;;;4.90;99.90;;;;;;5071618;28;20183;-79
2023/03/17 01:50:05;;;;;;;3.53;3.10;;;4.70;99.90;;;;;;5071689;28;20192;-78
2023/03/17 01:52:34;;;;;;;3.90;3.20;;;4.60;99.90;;;;;;5053623;28;20197;-78
2023/03/17 01:55:05;;;;;;;3.07;2.77;;;4.50;99.90;;;;;;5071633;28;20652;-78
2023/03/17 01:57:31;;;;;;;3.53;2.30;;;4.40;99.90;;;;;;5053614;28;20206;-80
2023/03/17 02:00:12;;;;;;;3.67;2.50;;;4.30;99.90;;;;;;5053598;28;20571;-78
2023/03/17 02:02:40;;;;;;;3.63;2.40;;;4.30;99.90;;;;;;5071529;28;20191;-78
2023/03/17 02:05:10;;;;;;;3.27;2.70;;;4.20;99.90;;;;;;5053784;28;20675;-79
2023/03/17 02:07:36;;;;;;;3.77;2.50;;;4.10;99.90;;;;;;5053647;28;20568;-80
2023/03/17 02:10:04;;;;;;;3.80;2.67;;;4.10;99.90;;;;;;5073292;28;20173;-79
2023/03/17 02:12:29;;;;;;;3.37;2.37;;;4.00;99.90;;;;;;5074879;28;20204;-78
2023/03/17 02:14:56;;;;;;;3.47;2.93;;;4.10;99.90;;;;;;5075300;28;20173;-79
2023/03/17 02:17:24;;;;;;;2.83;2.23;;;4.00;99.90;;;;;;5075172;28;20200;-79
2023/03/17 02:19:51;;;;;;;3.00;2.40;;;4.00;99.90;;;;;;5074916;28;20664;-79
2023/03/17 02:22:18;;;;;;;4.10;2.67;;;4.00;99.90;;;;;;5057056;28;20201;-78
2023/03/17 02:24:54;;;;;;;2.60;2.30;;;3.90;99.90;;;;;;5057048;28;20173;-78
2023/03/17 02:27:28;;;;;;;3.13;2.47;;;3.90;99.90;;;;;;5057021;28;20252;-78
2023/03/17 02:29:54;;;;;;;3.27;2.80;;;3.90;99.90;;;;;;5056716;28;20212;-79
2023/03/17 02:32:19;;;;;;;3.87;2.60;;;3.90;99.90;;;;;;5074857;28;20274;-79
2023/03/17 02:34:47;;;;;;;3.30;2.93;;;3.90;99.90;;;;;;5074731;28;20184;-79
2023/03/17 02:37:13;;;;;;;3.70;2.97;;;3.90;99.90;;;;;;5056928;28;20202;-78
2023/03/17 02:39:39;;;;;;;4.37;2.77;;;4.00;99.90;;;;;;5074342;28;20659;-79
2023/03/17 02:42:05;;;;;;;3.97;3.47;;;4.00;99.90;;;;;;5074717;28;20219;-76
2023/03/17 02:44:30;;;;;;;4.40;3.10;;;4.00;99.90;;;;;;5056572;28;20173;-78
2023/03/17 02:46:57;;;;;;;4.10;3.03;;;4.00;99.90;;;;;;5056660;28;20589;-78
2023/03/17 02:49:23;;;;;;;4.57;3.20;;;3.90;99.90;;;;;;5056655;28;20170;-78
2023/03/17 02:51:49;;;;;;;5.33;3.37;;;3.90;99.90;;;;;;5074282;28;20173;-78
2023/03/17 02:54:15;;;;;;;4.97;3.37;;;3.90;99.90;;;;;;5074380;28;20174;-78
2023/03/17 02:56:41;;;;;;;3.97;3.27;;;3.90;99.90;;;;;;5074557;28;20196;-78
2023/03/17 02:59:07;;;;;;;3.50;2.90;;;3.80;99.90;;;;;;5074478;28;20173;-78
2023/03/17 03:01:34;;;;;;;3.97;3.27;;;3.70;99.90;;;;;;5056209;28;20216;-78
2023/03/17 03:04:00;;;;;;;3.33;2.83;;;3.70;99.90;;;;;;5056320;28;20176;-78
2023/03/17 03:06:25;;;;;;;3.47;3.00;;;3.80;99.90;;;;;;5056340;28;20178;-79
2023/03/17 03:08:52;;;;;;;3.10;2.80;;;3.80;99.90;;;;;;5056099;28;20174;-78
2023/03/17 03:11:18;;;;;;;3.93;2.73;;;3.80;99.90;;;;;;5073941;28;20174;-78
2023/03/17 03:13:45;;;;;;;2.97;2.47;;;3.60;99.90;;;;;;5056198;28;20196;-78
2023/03/17 03:16:11;;;;;;;3.43;2.83;;;3.60;99.90;;;;;;5074004;28;20165;-79
2023/03/17 03:18:37;;;;;;;3.43;2.70;;;3.60;99.90;;;;;;5074092;28;20172;-78
2023/03/17 03:21:03;;;;;;;4.20;3.30;;;3.60;99.90;;;;;;5055748;28;20189;-78
2023/03/17 03:23:29;;;;;;;3.77;3.10;;;3.60;99.90;;;;;;5073790;28;20282;-78
2023/03/17 03:25:56;;;;;;;4.73;3.23;;;3.50;99.90;;;;;;5073760;28;20643;-79
2023/03/17 03:28:22;;;;;;;5.67;3.27;;;3.50;99.90;;;;;;5056027;28;20264;-79
2023/03/17 03:30:48;;;;;;;3.90;3.10;;;3.40;99.90;;;;;;5055810;28;20260;-78
2023/03/17 03:33:15;;;;;;;3.83;2.93;;;3.40;99.90;;;;;;5073601;28;20216;-78
2023/03/17 03:35:41;;;;;;;4.33;3.10;;;3.40;99.90;;;;;;5055737;28;20169;-78
2023/03/17 03:38:07;;;;;;;5.53;3.67;;;3.40;99.90;;;;;;5055532;28;20205;-80
2023/03/17 03:40:34;;;;;;;6.00;4.03;;;3.30;99.90;;;;;;5073396;28;20545;-79
2023/03/17 03:43:00;;;;;;;4.50;3.57;;;3.40;99.90;;;;;;5073341;28;20585;-79
2023/03/17 03:45:26;;;;;;;5.80;4.03;;;3.50;99.90;;;;;;5055504;28;20199;-78
2023/03/17 03:47:51;;;;;;;5.37;3.63;;;3.60;99.90;;;;;;5073376;28;20177;-78
2023/03/17 03:50:17;;;;;;;5.23;3.50;;;3.50;99.90;;;;;;5073101;28;20259;-79
2023/03/17 03:52:43;;;;;;;5.27;3.60;;;3.20;99.90;;;;;;5073052;28;20227;-78
2023/03/17 03:55:09;;;;;;;4.40;3.30;;;3.10;99.90;;;;;;5055313;28;20184;-78
2023/03/17 03:57:35;;;;;;;4.10;3.67;;;3.10;99.90;;;;;;5055314;28;20210;-78
2023/03/17 04:00:03;;;;;;;5.00;3.77;;;3.10;99.90;;;;;;5073296;28;20162;-78
2023/03/17 04:02:30;;;;;;;4.77;3.63;;;3.00;99.90;;;;;;5055111;28;20225;-78
2023/03/17 04:04:56;;;;;;;4.70;3.80;;;3.10;99.90;;;;;;5055097;28;20670;-78
2023/03/17 04:07:22;;;;;;;6.03;4.10;;;3.10;99.90;;;;;;5072963;28;20646;-78
2023/03/17 04:09:51;;;;;;;5.53;3.40;;;3.10;99.90;;;;;;5072925;28;20267;-79
2023/03/17 04:12:16;;;;;;;5.17;3.63;;;3.10;99.90;;;;;;5055025;28;20200;-78
2023/03/17 04:14:43;;;;;;;4.23;3.70;;;3.20;99.90;;;;;;5054919;28;20250;-78
2023/03/17 04:17:10;;;;;;;5.13;3.40;;;3.20;99.90;;;;;;5054917;28;20604;-78
2023/03/17 04:19:37;;;;;;;5.47;3.50;;;3.20;99.90;;;;;;5072473;28;20226;-76
2023/03/17 04:22:03;;;;;;;5.30;3.53;;;3.20;99.90;;;;;;5072404;28;20208;-78
2023/03/17 04:24:28;;;;;;;6.83;4.10;;;3.20;99.90;;;;;;5072760;28;20180;-79
2023/03/17 04:26:55;;;;;;;4.83;3.70;;;3.30;99.90;;;;;;5054579;28;20571;-79
2023/03/17 04:29:20;;;;;;;6.20;3.60;;;3.40;99.90;;;;;;5054711;28;20177;-79
2023/03/17 04:31:46;;;;;;;4.53;3.60;;;3.40;99.90;;;;;;5071777;28;20188;-78
2023/03/17 04:34:17;;;;;;;4.57;3.57;;;3.40;99.90;;;;;;5054443;28;20176;-79
2023/03/17 04:36:47;;;;;;;6.37;4.33;;;3.40;99.90;;;;;;5072551;28;20239;-77
2023/03/17 04:39:13;;;;;;;7.67;5.03;;;3.30;99.90;;;;;;5054451;28;20266;-78
2023/03/17 04:41:39;;;;;;;9.37;6.10;;;3.30;99.90;;;;;;5072086;28;20229;-78
2023/03/17 04:44:05;;;;;;;14.43;8.70;;;3.30;99.90;;;;;;5054718;28;20182;-77
2023/03/17 04:46:32;;;;;;;20.53;10.37;;;3.30;99.90;;;;;;5054371;28;20182;-79
2023/03/17 04:48:58;;;;;;;28.30;14.27;;;3.20;99.90;;;;;;5054332;28;20643;-78
2023/03/17 04:51:23;;;;;;;30.47;15.57;;;3.20;99.90;;;;;;5071987;28;20225;-78
2023/03/17 04:53:49;;;;;;;16.27;9.77;;;3.10;99.90;;;;;;5072171;28;20316;-78
2023/03/17 04:56:15;;;;;;;10.30;6.00;;;3.10;99.90;;;;;;5072212;28;20183;-78
2023/03/17 04:58:41;;;;;;;7.73;5.37;;;3.00;99.90;;;;;;5054293;28;20179;-79
2023/03/17 05:01:07;;;;;;;6.27;4.40;;;2.90;99.90;;;;;;5072430;28;20212;-79
2023/03/17 05:03:33;;;;;;;7.10;4.93;;;2.80;99.90;;;;;;5053982;28;20203;-80
2023/03/17 05:06:00;;;;;;;6.57;4.80;;;2.70;99.90;;;;;;5054474;28;20175;-78
2023/03/17 05:08:27;;;;;;;7.20;4.70;;;2.70;99.90;;;;;;5072205;28;20176;-78
2023/03/17 05:10:53;;;;;;;8.40;4.77;;;2.70;99.90;;;;;;5053952;28;20169;-78
2023/03/17 05:13:19;;;;;;;7.07;4.97;;;2.70;99.90;;;;;;5071873;28;20196;-80
2023/03/17 05:15:50;;;;;;;10.90;5.80;;;2.70;99.90;;;;;;5071936;28;20173;-78
2023/03/17 05:18:17;;;;;;;16.53;9.00;;;2.60;99.90;;;;;;5052415;28;20622;-79
2023/03/17 05:20:42;;;;;;;13.93;8.10;;;2.50;99.90;;;;;;5042116;28;20176;-78
2023/03/17 05:23:08;;;;;;;11.63;6.97;;;2.50;99.90;;;;;;5099793;22;20231;-82
2023/03/17 05:25:34;;;;;;;12.20;7.30;;;2.40;99.90;;;;;;5074858;28;20557;-82
2023/03/17 05:28:00;;;;;;;12.27;7.10;;;2.40;99.90;;;;;;5074749;28;20172;-85
2023/03/17 05:30:26;;;;;;;8.67;6.33;;;2.40;99.90;;;;;;5092771;28;20205;-82
2023/03/17 05:32:52;;;;;;;11.97;6.63;;;2.40;99.90;;;;;;5068026;28;20198;-82
2023/03/17 05:35:17;;;;;;;11.00;6.50;;;2.30;99.90;;;;;;5046570;28;20180;-81
2023/03/17 05:37:43;;;;;;;10.70;6.37;;;2.40;99.90;;;;;;5054967;28;20211;-82
2023/03/17 05:40:11;;;;;;;9.10;5.80;;;2.30;99.90;;;;;;5072681;28;20203;-82
2023/03/17 05:42:37;;;;;;;7.90;5.50;;;2.40;99.90;;;;;;5054962;28;20298;-83
2023/03/17 05:45:04;;;;;;;8.33;5.37;;;2.40;99.90;;;;;;5057436;28;20172;-82
2023/03/17 05:47:31;;;;;;;9.07;5.60;;;2.40;99.90;;;;;;5076519;28;20182;-82
2023/03/17 05:49:57;;;;;;;9.77;5.53;;;2.50;99.90;;;;;;5076103;28;20179;-82
2023/03/17 05:52:23;;;;;;;7.53;4.57;;;2.50;99.90;;;;;;5057903;28;20175;-79
2023/03/17 05:54:51;;;;;;;6.77;4.83;;;2.80;99.90;;;;;;5058135;28;20171;-79
2023/03/17 05:57:16;;;;;;;7.70;5.30;;;3.50;99.90;;;;;;5057343;28;20301;-79
2023/03/17 05:59:42;;;;;;;7.43;5.80;;;4.10;99.90;;;;;;5057396;28;20262;-79
2023/03/17 06:02:10;;;;;;;6.60;5.07;;;4.30;99.90;;;;;;5072430;28;20237;-79
2023/03/17 06:04:36;;;;;;;7.30;5.10;;;4.20;99.90;;;;;;5067894;28;20172;-82
2023/03/17 06:07:01;;;;;;;8.27;5.00;;;4.30;99.90;;;;;;5057711;28;20176;-84
2023/03/17 06:09:27;;;;;;;7.20;5.13;;;3.90;99.90;;;;;;5058119;28;20212;-82
2023/03/17 06:11:53;;;;;;;6.73;5.00;;;3.50;99.90;;;;;;5057723;28;20255;-82
2023/03/17 06:14:18;;;;;;;7.73;5.03;;;3.30;99.90;;;;;;5076080;28;20579;-86
2023/03/17 06:16:45;;;;;;;7.07;4.80;;;3.30;99.90;;;;;;5058040;28;20196;-83
2023/03/17 06:19:11;;;;;;;7.80;5.33;;;3.20;99.90;;;;;;5058385;28;20172;-86
2023/03/17 06:21:36;;;;;;;6.73;4.73;;;3.10;99.90;;;;;;5058223;28;20172;-87
2023/03/17 06:24:02;;;;;;;7.30;4.70;;;3.10;99.90;;;;;;5076945;28;20261;-84
2023/03/17 06:26:27;;;;;;;7.97;4.60;;;3.00;99.90;;;;;;5058552;28;20180;-85
2023/03/17 06:28:53;;;;;;;6.27;4.43;;;3.00;99.90;;;;;;5076075;28;20603;-87
2023/03/17 06:31:19;;;;;;;6.73;4.70;;;3.00;99.90;;;;;;5057964;28;20211;-85
2023/03/17 06:33:44;;;;;;;6.87;4.70;;;3.10;99.90;;;;;;5059556;28;20197;-83
2023/03/17 06:36:10;;;;;;;7.17;4.50;;;3.20;99.90;;;;;;5058749;28;20172;-83
2023/03/17 06:38:36;;;;;;;6.13;4.33;;;3.20;99.90;;;;;;5057867;28;20204;-84
2023/03/17 06:41:02;;;;;;;6.37;4.37;;;3.30;99.90;;;;;;5057570;28;20207;-86
2023/03/17 06:43:27;;;;;;;6.93;4.37;;;3.30;99.90;;;;;;5057706;28;20192;-87
2023/03/17 06:45:53;;;;;;;6.47;4.17;;;3.40;99.90;;;;;;5075307;28;20169;-84
2023/03/17 06:48:18;;;;;;;5.90;3.70;;;3.50;99.90;;;;;;5056836;28;20571;-85
2023/03/17 06:50:46;;;;;;;3.33;2.60;;;3.60;99.90;;;;;;5074453;28;20556;-85
2023/03/17 06:53:12;;;;;;;3.50;2.20;;;3.90;99.90;;;;;;5056496;28;20197;-85
2023/03/17 06:55:37;;;;;;;2.70;2.10;;;4.30;99.90;;;;;;5074208;28;20272;-86
2023/03/17 06:58:03;;;;;;;3.60;2.13;;;4.70;99.90;;;;;;5066749;28;20229;-85
2023/03/17 07:00:29;;;;;;;4.60;2.83;;;5.00;99.90;;;;;;5044814;28;20170;-85
2023/03/17 07:02:56;;;;;;;3.83;2.40;;;5.30;99.90;;;;;;5054511;28;20198;-85
2023/03/17 07:05:22;;;;;;;3.07;2.50;;;5.40;99.90;;;;;;5036526;28;20170;-85
2023/03/17 07:07:48;;;;;;;4.57;3.10;;;5.50;99.90;;;;;;5054207;28;20295;-85
2023/03/17 07:10:14;;;;;;;5.43;3.60;;;5.40;99.90;;;;;;5054050;28;20257;-85
2023/03/17 07:12:40;;;;;;;6.37;3.40;;;5.20;99.90;;;;;;5041578;28;20296;-87
2023/03/17 07:15:08;;;;;;;6.50;4.20;;;5.00;99.90;;;;;;5062613;28;20209;-82
2023/03/17 07:17:34;;;;;;;6.27;4.77;;;4.80;99.90;;;;;;5036377;28;20213;-82
2023/03/17 07:19:59;;;;;;;5.93;4.10;;;4.60;99.90;;;;;;5036447;28;20264;-84
2023/03/17 07:22:26;;;;;;;6.27;4.60;;;4.50;99.90;;;;;;5036240;28;20267;-83
2023/03/17 07:24:52;;;;;;;7.93;4.93;;;4.40;99.90;;;;;;5036547;28;20173;-83
2023/03/17 07:27:18;;;;;;;7.47;5.60;;;4.40;99.90;;;;;;5036189;28;20182;-82
2023/03/17 07:29:43;;;;;;;7.87;5.37;;;4.30;99.90;;;;;;5054349;28;20177;-82
2023/03/17 07:32:09;;;;;;;7.27;4.90;;;4.40;99.90;;;;;;5054223;28;20185;-84
2023/03/17 07:34:36;;;;;;;6.07;4.77;;;4.50;99.90;;;;;;5036351;28;20637;-87
2023/03/17 07:37:02;;;;;;;8.17;5.20;;;4.50;99.90;;;;;;5053422;28;20577;-84
2023/03/17 07:39:28;;;;;;;7.80;5.00;;;4.50;99.90;;;;;;5053873;28;20171;-84
2023/03/17 07:41:56;;;;;;;6.70;4.93;;;5.00;99.90;;;;;;5053681;28;20244;-85
2023/03/17 07:44:23;;;;;;;6.77;4.57;;;4.80;99.90;;;;;;5035985;28;20195;-83
2023/03/17 07:46:49;;;;;;;5.90;4.83;;;4.60;99.90;;;;;;5053994;28;20632;-84
2023/03/17 07:49:15;;;;;;;6.03;4.50;;;4.60;99.90;;;;;;5036411;28;20213;-83
2023/03/17 07:51:42;;;;;;;5.43;3.97;;;4.50;99.90;;;;;;5053587;28;20194;-83
2023/03/17 07:54:09;;;;;;;6.30;4.93;;;4.40;99.90;;;;;;5053332;28;20742;-83
2023/03/17 07:56:35;;;;;;;6.13;4.03;;;4.40;99.90;;;;;;5035420;28;20201;-83
2023/03/17 07:59:01;;;;;;;7.33;4.30;;;4.40;99.90;;;;;;5035601;28;20172;-83
2023/03/17 08:01:27;;;;;;;6.87;4.40;;;4.40;99.90;;;;;;5053397;28;20226;-80
2023/03/17 08:03:55;;;;;;;5.40;4.57;;;4.60;99.90;;;;;;5053100;28;20692;-83
2023/03/17 08:06:21;;;;;;;6.00;3.77;;;4.70;99.90;;;;;;5052718;28;20170;-84
2023/03/17 08:08:47;;;;;;;5.30;4.07;;;5.00;99.90;;;;;;5052768;28;20575;-83
2023/03/17 08:11:12;;;;;;;4.67;3.57;;;5.20;99.90;;;;;;5035006;28;20185;-84
2023/03/17 08:13:38;;;;;;;5.60;3.60;;;5.40;99.90;;;;;;5053178;28;20568;-83
2023/03/17 08:16:04;;;;;;;6.87;3.40;;;5.60;99.90;;;;;;5053092;28;20180;-83
2023/03/17 08:18:29;;;;;;;4.53;3.17;;;5.80;99.90;;;;;;5034937;28;20579;-83
2023/03/17 08:20:55;;;;;;;5.97;2.77;;;6.10;99.90;;;;;;5035246;28;20176;-83
2023/03/17 08:23:21;;;;;;;2.80;2.50;;;6.20;99.90;;;;;;5052747;28;20210;-83
2023/03/17 08:25:47;;;;;;;4.47;2.33;;;6.50;99.90;;;;;;5034939;28;20173;-84
2023/03/17 08:28:14;;;;;;;4.13;2.50;;;6.80;99.90;;;;;;5035010;28;20664;-83
2023/03/17 08:30:43;;;;;;;3.20;2.10;;;7.00;99.90;;;;;;5034890;28;20202;-84
2023/03/17 08:33:09;;;;;;;3.77;2.47;;;7.20;99.90;;;;;;5034924;28;20229;-83
2023/03/17 08:35:36;;;;;;;4.63;3.00;;;7.40;99.90;;;;;;5052557;28;20208;-83
2023/03/17 08:38:02;;;;;;;3.10;2.10;;;7.60;99.90;;;;;;5034708;28;20244;-83
2023/03/17 08:40:28;;;;;;;2.77;2.00;;;7.80;99.90;;;;;;5034516;28;20180;-84
2023/03/17 08:42:54;;;;;;;2.37;1.90;;;7.90;99.90;;;;;;5052417;28;20193;-85
2023/03/17 08:45:20;;;;;;;3.33;2.10;;;8.00;98.70;;;;;;5034800;28;20173;-84
2023/03/17 08:47:46;;;;;;;2.03;1.80;;;8.20;97.60;;;;;;5052466;28;20165;-84
2023/03/17 08:50:17;;;;;;;2.90;2.13;;;8.40;96.30;;;;;;5034472;28;20180;-87
2023/03/17 08:52:44;;;;;;;3.23;2.20;;;8.60;96.70;;;;;;5052432;28;20199;-84
2023/03/17 08:55:11;;;;;;;3.30;2.10;;;8.70;94.10;;;;;;5052728;28;20175;-84
2023/03/17 08:57:36;;;;;;;2.87;1.90;;;8.90;96.00;;;;;;5034639;28;20240;-85
2023/03/17 09:00:09;;;;;;;3.13;2.00;;;9.00;91.90;;;;;;5052117;28;20200;-84
2023/03/17 09:02:42;;;;;;;2.47;1.90;;;9.20;92.20;;;;;;5052256;28;20194;-84
2023/03/17 09:05:10;;;;;;;4.13;1.83;;;9.30;90.80;;;;;;5052531;28;20179;-84
2023/03/17 09:07:36;;;;;;;2.73;2.10;;;9.40;91.70;;;;;;5052301;28;20223;-84
2023/03/17 09:10:02;;;;;;;2.00;1.80;;;9.50;91.70;;;;;;5033952;28;20238;-84
2023/03/17 09:12:29;;;;;;;3.03;1.70;;;9.60;90.60;;;;;;5034223;28;20212;-83
2023/03/17 09:14:55;;;;;;;2.00;1.80;;;9.80;92.20;;;;;;5034292;28;20666;-84
2023/03/17 09:17:22;;;;;;;2.23;1.87;;;10.00;92.20;;;;;;5051769;28;20575;-84
2023/03/17 09:19:47;;;;;;;1.93;1.60;;;10.10;86.90;;;;;;5051735;28;20181;-84
2023/03/17 09:22:15;;;;;;;2.10;1.80;;;10.40;75.50;;;;;;5033968;28;20173;-83
2023/03/17 09:24:41;;;;;;;2.00;1.80;;;10.60;73.80;;;;;;5034357;28;20180;-84
2023/03/17 09:27:06;;;;;;;2.37;1.53;;;10.80;69.50;;;;;;5052092;28;20182;-84
2023/03/17 09:29:32;;;;;;;2.17;1.80;;;10.90;68.80;;;;;;5051845;28;20189;-84
2023/03/17 09:31:59;;;;;;;3.13;1.60;;;11.00;69.70;;;;;;5051757;28;20185;-84
2023/03/17 09:34:25;;;;;;;2.00;1.80;;;11.10;69.40;;;;;;5049555;28;20291;-84
2023/03/17 09:36:52;;;;;;;2.70;1.80;;;11.20;59.10;;;;;;5048028;28;20304;-84
2023/03/17 09:39:21;;;;;;;3.23;1.70;;;11.40;62.90;;;;;;5054166;28;20184;-87
2023/03/17 09:41:52;;;;;;;2.23;1.73;;;11.60;61.80;;;;;;5071770;28;20176;-84
2023/03/17 09:44:28;;;;;;;2.73;1.50;;;11.80;55.70;;;;;;5071821;28;20188;-83
2023/03/17 09:47:13;;;;;;;2.13;1.50;;;11.90;59.20;;;;;;5072008;28;20169;-84
2023/03/17 09:49:46;;;;;;;1.90;1.70;;;12.10;46.30;;;;;;5071723;28;20176;-86
2023/03/17 09:52:14;;;;;;;1.50;1.40;;;12.20;40.50;;;;;;5045292;28;20173;-84
2023/03/17 09:54:41;;;;;;;2.70;1.97;;;12.40;43.50;;;;;;5053971;28;20180;-84
2023/03/17 09:57:23;;;;;;;2.57;1.70;;;12.50;43.20;;;;;;5071575;28;20197;-87
2023/03/17 10:00:06;;;;;;;2.13;1.67;;;12.70;35.70;;;;;;5053881;28;20635;-86
2023/03/17 10:02:36;;;;;;;2.77;1.93;;;12.80;42.10;;;;;;5050559;28;20220;-84
2023/03/17 10:05:18;;;;;;;2.70;1.70;;;13.00;40.80;;;;;;5049092;28;20200;-84
2023/03/17 10:08:15;;;;;;;2.47;1.70;;;13.10;40.10;;;;;;5053983;28;20179;-84
2023/03/17 10:10:49;;;;;;;2.60;1.53;;;13.20;34.70;;;;;;5053590;28;20180;-84
2023/03/17 10:13:26;;;;;;;1.97;1.63;;;13.10;32.70;;;;;;5053652;28;20266;-84
2023/03/17 10:16:10;;;;;;;1.70;1.50;;;13.00;31.00;;;;;;5071499;28;20165;-84
2023/03/17 10:18:47;;;;;;;1.80;1.50;;;13.00;30.50;;;;;;5051392;28;20680;-86
2023/03/17 10:21:22;;;;;;;1.87;1.60;;;12.90;34.00;;;;;;5052321;28;20180;-84
2023/03/17 10:23:49;;;;;;;2.20;1.57;;;12.80;35.20;;;;;;5034242;28;20209;-83
2023/03/17 10:26:38;;;;;;;1.60;1.50;;;12.80;38.80;;;;;;5034432;28;20180;-84
2023/03/17 10:29:11;;;;;;;2.87;1.60;;;12.80;43.20;;;;;;5034730;28;20181;-82
2023/03/17 10:31:38;;;;;;;2.63;1.47;;;12.90;42.70;;;;;;5053419;28;20176;-83
2023/03/17 10:34:34;;;;;;;3.03;1.63;;;12.90;45.40;;;;;;5057811;28;20205;-82
2023/03/17 10:37:21;;;;;;;4.03;1.80;;;12.90;58.40;;;;;;5075799;28;20212;-87
2023/03/17 10:39:50;;;;;;;2.77;1.80;;;12.80;57.60;;;;;;5057401;28;20267;-83
2023/03/17 10:42:28;;;;;;;2.43;1.40;;;12.80;57.00;;;;;;5075475;28;20200;-82
2023/03/17 10:45:12;;;;;;;3.43;2.10;;;12.70;53.00;;;;;;5057039;28;20203;-83
2023/03/17 10:47:43;;;;;;;3.83;2.10;;;12.80;55.40;;;;;;5075518;28;20173;-84
2023/03/17 10:50:15;;;;;;;3.13;1.90;;;12.80;60.10;;;;;;5057272;28;20635;-85
2023/03/17 10:52:41;;;;;;;2.43;1.77;;;12.90;56.30;;;;;;5057172;28;20274;-86
2023/03/17 10:55:12;;;;;;;2.60;1.90;;;12.90;49.00;;;;;;5075316;28;20173;-87
2023/03/17 10:57:38;;;;;;;3.93;1.77;;;12.80;49.90;;;;;;5074875;28;20265;-88
2023/03/17 11:00:18;;;;;;;2.53;1.80;;;12.70;53.90;;;;;;5057625;28;20181;-89
2023/03/17 11:03:21;;;;;;;2.50;1.70;;;12.70;58.00;;;;;;5048601;28;20185;-86
2023/03/17 11:06:00;;;;;;;2.73;1.70;;;12.80;57.20;;;;;;5037416;28;20237;-87
2023/03/17 11:08:30;;;;;;;4.03;1.67;;;12.80;56.00;;;;;;5037212;28;20184;-87
2023/03/17 11:10:56;;;;;;;1.67;1.40;;;12.80;55.80;;;;;;5054879;28;20204;-88
2023/03/17 11:13:28;;;;;;;2.37;1.73;;;12.90;54.90;;;;;;5037422;28;20193;-87
2023/03/17 11:16:16;;;;;;;2.57;1.60;;;12.90;51.60;;;;;;5055963;28;20161;-85
2023/03/17 11:18:42;;;;;;;3.03;1.53;;;13.00;56.70;;;;;;5041058;28;20219;-87
2023/03/17 11:21:25;;;;;;;2.03;1.60;;;13.10;54.50;;;;;;5048692;28;20211;-86
2023/03/17 11:24:01;;;;;;;2.37;1.80;;;13.10;53.40;;;;;;5117908;22;20307;-80
2023/03/17 11:27:25;;;;;;;1.90;1.50;;;13.20;50.80;;;;;;5054353;28;20174;-81
2023/03/17 11:30:13;;;;;;;3.67;1.60;;;13.30;50.30;;;;;;5030924;28;20514;-79
2023/03/17 11:32:58;;;;;;;1.63;1.50;;;13.30;54.60;;;;;;5053153;28;20193;-82
2023/03/17 11:35:40;;;;;;;2.30;1.60;;;13.40;54.10;;;;;;5054216;28;20169;-80
2023/03/17 11:38:23;;;;;;;1.80;1.47;;;13.40;52.50;;;;;;5052921;28;20202;-80
2023/03/17 11:41:16;;;;;;;2.43;1.60;;;13.40;55.60;;;;;;5054124;28;20174;-81
2023/03/17 11:44:04;;;;;;;3.13;1.97;;;13.50;55.10;;;;;;5053169;28;20192;-80
2023/03/17 11:46:35;;;;;;;2.77;2.27;;;13.70;57.80;;;;;;5054025;28;20264;-80
2023/03/17 11:49:19;;;;;;;2.43;1.60;;;13.70;57.90;;;;;;5052959;28;20174;-80
2023/03/17 11:52:00;;;;;;;2.07;1.50;;;13.90;57.60;;;;;;5052532;28;20184;-80
2023/03/17 11:54:51;;;;;;;2.47;1.80;;;14.00;49.40;;;;;;5052617;28;20197;-80
2023/03/17 11:57:24;;;;;;;3.20;1.80;;;14.20;53.70;;;;;;5053704;28;20261;-80
2023/03/17 11:59:51;;;;;;;1.80;1.63;;;14.40;51.60;;;;;;5053155;28;20173;-80
2023/03/17 12:02:38;;;;;;;2.93;1.70;;;14.40;51.50;;;;;;5053573;28;20190;-80
2023/03/17 12:05:12;;;;;;;2.77;1.77;;;14.50;50.40;;;;;;5053899;28;20169;-80
2023/03/17 12:07:50;;;;;;;3.87;1.70;;;14.80;47.80;;;;;;5053519;28;20173;-82
2023/03/17 12:10:35;;;;;;;1.83;1.63;;;15.00;44.20;;;;;;5053701;28;20169;-82
2023/03/17 12:13:20;;;;;;;3.70;1.87;;;15.10;37.60;;;;;;5053456;28;20190;-82
2023/03/17 12:16:03;;;;;;;2.57;1.93;;;15.10;38.50;;;;;;5052370;28;20204;-81
2023/03/17 12:18:45;;;;;;;1.87;1.63;;;15.40;41.90;;;;;;5051054;28;20255;-84
2023/03/17 12:21:31;;;;;;;2.33;1.70;;;15.20;33.80;;;;;;5049905;28;20684;-82
2023/03/17 12:24:16;;;;;;;2.40;1.70;;;15.10;36.10;;;;;;5051512;28;20205;-83
2023/03/17 12:26:58;;;;;;;2.93;2.40;;;15.10;34.00;;;;;;5051813;28;20174;-82
2023/03/17 12:29:46;;;;;;;3.10;1.70;;;15.20;32.30;;;;;;5052042;28;20220;-81
2023/03/17 12:32:11;;;;;;;2.60;1.80;;;15.10;29.70;;;;;;5051517;28;20659;-82
2023/03/17 12:34:50;;;;;;;1.90;1.60;;;15.20;34.80;;;;;;5052354;28;20193;-82
2023/03/17 12:37:18;;;;;;;1.53;1.40;;;15.20;38.60;;;;;;5053414;28;20201;-82
2023/03/17 12:39:59;;;;;;;2.70;1.70;;;14.90;31.90;;;;;;5053009;28;20185;-82
2023/03/17 12:42:37;;;;;;;3.47;1.80;;;15.00;39.10;;;;;;5052004;28;20204;-82
2023/03/17 12:45:48;;;;;;;2.67;1.60;;;14.90;38.20;;;;;;5052098;28;20173;-82
2023/03/17 12:48:20;;;;;;;2.63;1.80;;;14.80;37.20;;;;;;5008882;28;20185;-82
2023/03/17 12:51:06;;;;;;;1.97;1.60;;;14.80;37.80;;;;;;5053149;28;20192;-82
2023/03/17 12:53:40;;;;;;;2.80;1.53;;;14.70;36.90;;;;;;5051679;28;20204;-82
2023/03/17 12:56:15;;;;;;;2.67;1.50;;;14.60;40.80;;;;;;5052947;28;20178;-82
2023/03/17 12:58:49;;;;;;;2.20;1.40;;;14.60;39.30;;;;;;5051588;28;20212;-82
2023/03/17 13:01:44;;;;;;;2.87;1.50;;;14.60;37.10;;;;;;5051487;28;20545;-82
2023/03/17 13:04:28;;;;;;;1.70;1.50;;;14.60;38.70;;;;;;5052876;28;20255;-82
2023/03/17 13:07:13;;;;;;;2.47;1.53;;;14.60;43.40;;;;;;5051518;28;20196;-82